createdAt,value
2022-09-21T00:00:02.354Z,2.42
2022-09-21T00:03:06.708Z,1.92
2022-09-21T00:06:11.975Z,2.35
2022-09-21T00:09:13.769Z,1.73
2022-09-21T00:12:16.563Z,2.33
2022-09-21T00:15:18.543Z,2.40
2022-09-21T00:18:20.306Z,2.03
2022-09-21T00:21:22.225Z,2.28
2022-09-21T00:24:23.981Z,2.20
2022-09-21T00:27:29.957Z,2.00
2022-09-21T00:30:31.781Z,2.13
2022-09-21T00:33:34.249Z,2.15
2022-09-21T00:36:36.267Z,2.47
2022-09-21T00:39:38.460Z,1.80
2022-09-21T00:42:40.384Z,1.83
2022-09-21T00:45:44.656Z,2.42
2022-09-21T00:48:46.822Z,2.13
2022-09-21T00:51:49.790Z,1.77
2022-09-21T00:54:55.775Z,2.15
2022-09-21T00:58:01.967Z,1.70
2022-09-21T01:01:03.714Z,1.83
2022-09-21T01:04:07.071Z,2.15
2022-09-21T01:07:19.099Z,1.83
2022-09-21T01:10:21.971Z,2.10
2022-09-21T01:13:38.787Z,1.90
2022-09-21T01:17:08.756Z,2.25
2022-09-21T01:20:25.618Z,2.08
2022-09-21T01:24:15.356Z,2.40
2022-09-21T01:27:36.099Z,2.15
2022-09-21T01:30:39.944Z,1.92
2022-09-21T01:33:49.033Z,2.03
2022-09-21T01:36:56.175Z,1.75
2022-09-21T01:40:03.186Z,2.05
2022-09-21T01:43:07.092Z,2.08
2022-09-21T01:46:14.161Z,1.60
2022-09-21T01:49:25.800Z,1.77
2022-09-21T01:52:36.197Z,2.05
2022-09-21T01:55:47.799Z,1.77
2022-09-21T01:59:07.036Z,1.52
2022-09-21T02:02:17.155Z,1.90
2022-09-21T02:05:22.487Z,1.98
2022-09-21T02:08:28.920Z,1.80
2022-09-21T02:11:30.644Z,1.75
2022-09-21T02:14:34.830Z,2.05
2022-09-21T02:17:56.894Z,1.80
2022-09-21T02:21:01.855Z,2.00
2022-09-21T02:24:13.588Z,1.60
2022-09-21T02:27:54.200Z,1.70
2022-09-21T02:31:07.469Z,1.85
2022-09-21T02:34:33.277Z,1.90
2022-09-21T02:37:44.570Z,1.88
2022-09-21T02:41:03.519Z,1.75
2022-09-21T02:44:18.776Z,1.83
2022-09-21T02:47:36.129Z,1.60
2022-09-21T02:50:58.958Z,1.60
2022-09-21T02:54:06.730Z,1.85
2022-09-21T02:57:11.940Z,1.98
2022-09-21T03:00:16.085Z,1.90
2022-09-21T03:03:20.555Z,1.70
2022-09-21T03:06:22.273Z,1.80
2022-09-21T03:09:24.411Z,1.67
2022-09-21T03:12:26.793Z,1.50
2022-09-21T03:15:28.676Z,1.80
2022-09-21T03:18:31.058Z,2.20
2022-09-21T03:21:32.900Z,1.70
2022-09-21T03:24:46.645Z,1.95
2022-09-21T03:27:48.350Z,1.90
2022-09-21T03:30:51.204Z,1.73
2022-09-21T03:33:53.507Z,1.65
2022-09-21T03:36:55.515Z,1.90
2022-09-21T03:39:57.247Z,1.58
2022-09-21T03:42:58.967Z,1.33
2022-09-21T03:46:00.757Z,1.33
2022-09-21T03:49:05.198Z,1.70
2022-09-21T03:52:07.326Z,1.83
2022-09-21T03:55:09.596Z,1.60
2022-09-21T03:58:11.336Z,1.58
2022-09-21T04:01:13.127Z,1.30
2022-09-21T04:04:15.097Z,1.50
2022-09-21T04:07:16.881Z,1.30
2022-09-21T04:10:21.871Z,1.60
2022-09-21T04:13:24.500Z,1.45
2022-09-21T04:16:27.394Z,1.30
2022-09-21T04:19:29.137Z,1.60
2022-09-21T04:22:31.411Z,1.50
2022-09-21T04:25:33.560Z,1.60
2022-09-21T04:28:35.282Z,1.40
2022-09-21T04:31:37.013Z,1.70
2022-09-21T04:34:39.443Z,1.60
2022-09-21T04:37:41.274Z,1.90
2022-09-21T04:40:43.165Z,1.40
2022-09-21T04:43:46.771Z,1.75
2022-09-21T04:46:48.660Z,1.30
2022-09-21T04:49:51.588Z,1.48
2022-09-21T04:52:53.281Z,1.40
2022-09-21T04:55:55.788Z,1.77
2022-09-21T04:58:57.655Z,1.10
2022-09-21T05:01:59.367Z,1.63
2022-09-21T05:05:01.095Z,1.35
2022-09-21T05:08:02.801Z,1.25
2022-09-21T05:11:06.247Z,1.20
2022-09-21T05:14:08.843Z,1.83
2022-09-21T05:17:11.906Z,2.25
2022-09-21T05:20:13.740Z,1.90
2022-09-21T05:23:16.878Z,1.50
2022-09-21T05:26:19.381Z,1.65
2022-09-21T05:29:21.446Z,1.75
2022-09-21T05:32:47.807Z,1.58
2022-09-21T05:36:32.172Z,1.27
2022-09-21T05:39:34.170Z,1.40
2022-09-21T05:42:36.074Z,1.48
2022-09-21T05:45:47.769Z,1.30
2022-09-21T05:49:11.210Z,1.40
2022-09-21T05:52:28.861Z,1.38
2022-09-21T05:56:11.501Z,1.30
2022-09-21T05:59:28.293Z,1.30
2022-09-21T06:02:53.875Z,1.35
2022-09-21T06:05:59.215Z,1.17
2022-09-21T06:09:00.944Z,1.10
2022-09-21T06:12:02.808Z,1.35
2022-09-21T06:15:06.398Z,1.10
2022-09-21T06:18:08.654Z,1.40
2022-09-21T06:21:10.730Z,1.27
2022-09-21T06:24:12.604Z,1.50
2022-09-21T06:27:14.768Z,1.20
2022-09-21T06:30:16.587Z,1.20
2022-09-21T06:33:21.120Z,1.63
2022-09-21T06:36:22.890Z,1.23
2022-09-21T06:39:24.614Z,1.35
2022-09-21T06:42:27.462Z,1.35
2022-09-21T06:45:31.022Z,1.30
2022-09-21T06:48:35.339Z,1.20
2022-09-21T06:51:37.040Z,1.05
2022-09-21T06:54:39.594Z,1.50
2022-09-21T06:57:41.379Z,1.05
2022-09-21T07:00:43.147Z,1.15
2022-09-21T07:03:48.626Z,1.40
2022-09-21T07:06:50.845Z,1.27
2022-09-21T07:10:12.046Z,1.40
2022-09-21T07:13:16.195Z,1.17
2022-09-21T07:16:19.487Z,1.25
2022-09-21T07:19:21.210Z,1.05
2022-09-21T07:22:22.958Z,1.23
2022-09-21T07:25:24.636Z,1.45
2022-09-21T07:28:26.411Z,1.30
2022-09-21T07:31:28.135Z,1.17
2022-09-21T07:34:29.902Z,1.45
2022-09-21T07:37:31.996Z,1.08
2022-09-21T07:40:35.014Z,1.10
2022-09-21T07:43:39.257Z,1.88
2022-09-21T07:46:45.789Z,1.20
2022-09-21T07:49:49.799Z,1.20
2022-09-21T07:52:51.504Z,1.10
2022-09-21T07:55:53.222Z,1.10
2022-09-21T07:59:07.058Z,1.00
2022-09-21T08:02:08.959Z,1.17
2022-09-21T08:05:10.756Z,1.23
2022-09-21T08:08:13.005Z,1.15
2022-09-21T08:11:19.765Z,1.40
2022-09-21T08:14:26.090Z,1.30
2022-09-21T08:17:29.650Z,1.20
2022-09-21T08:20:33.014Z,1.02
2022-09-21T08:23:36.013Z,1.08
2022-09-21T08:26:37.775Z,1.00
2022-09-21T08:29:39.681Z,0.93
2022-09-21T08:32:51.143Z,1.25
2022-09-21T08:35:59.111Z,1.20
2022-09-21T08:39:00.860Z,1.23
2022-09-21T08:42:39.069Z,1.30
2022-09-21T08:45:46.633Z,1.30
2022-09-21T08:52:02.020Z,1.30
2022-09-21T08:55:17.727Z,1.20
2022-09-21T08:58:22.488Z,1.10
2022-09-21T09:01:58.238Z,1.50
2022-09-21T09:05:20.299Z,1.05
2022-09-21T09:08:49.638Z,1.00
2022-09-21T09:12:10.729Z,1.20
2022-09-21T09:15:26.378Z,1.10
2022-09-21T09:18:33.252Z,1.25
2022-09-21T09:21:39.364Z,1.20
2022-09-21T09:24:49.339Z,1.42
2022-09-21T09:27:54.830Z,1.40
2022-09-21T09:31:13.478Z,1.50
2022-09-21T09:34:39.014Z,1.50
2022-09-21T09:37:41.962Z,1.63
2022-09-21T09:41:01.580Z,1.60
2022-09-21T09:44:14.300Z,1.38
2022-09-21T09:47:24.876Z,1.30
2022-09-21T09:50:30.937Z,1.63
2022-09-21T09:53:33.919Z,1.38
2022-09-21T09:56:35.629Z,1.48
2022-09-21T09:59:54.022Z,1.70
2022-09-21T10:03:01.206Z,1.50
2022-09-21T10:06:03.113Z,1.40
2022-09-21T10:09:29.009Z,1.40
2022-09-21T10:12:31.140Z,1.52
2022-09-21T10:15:33.270Z,1.88
2022-09-21T10:18:48.096Z,1.40
2022-09-21T10:21:59.841Z,1.27
2022-09-21T10:25:05.936Z,1.42
2022-09-21T10:28:12.240Z,1.77
2022-09-21T10:31:22.390Z,1.30
2022-09-21T10:34:30.157Z,1.45
2022-09-21T10:37:37.438Z,1.27
2022-09-21T10:40:39.983Z,1.13
2022-09-21T10:43:44.412Z,1.20
2022-09-21T10:46:50.651Z,1.10
2022-09-21T10:49:55.343Z,1.20
2022-09-21T10:53:01.496Z,1.17
2022-09-21T10:56:16.329Z,1.35
2022-09-21T10:59:18.916Z,1.30
2022-09-21T11:02:48.105Z,1.52
2022-09-21T11:05:53.489Z,1.02
2022-09-21T11:09:15.271Z,1.60
2022-09-21T11:12:19.944Z,1.02
2022-09-21T11:15:36.174Z,1.05
2022-09-21T11:19:09.960Z,1.27
2022-09-21T11:22:23.828Z,1.50
2022-09-21T11:25:46.690Z,1.30
2022-09-21T11:28:57.758Z,1.13
2022-09-21T11:32:29.894Z,1.02
2022-09-21T11:36:05.542Z,1.27
2022-09-21T11:39:32.360Z,1.42
2022-09-21T11:42:46.157Z,1.38
2022-09-21T11:45:57.557Z,1.20
2022-09-21T11:49:33.433Z,1.23
2022-09-21T11:52:54.512Z,1.40
2022-09-21T11:56:33.297Z,1.33
2022-09-21T11:59:49.363Z,1.17
2022-09-21T12:03:28.742Z,1.13
2022-09-21T12:06:51.788Z,1.20
2022-09-21T12:09:59.502Z,1.20
2022-09-21T12:13:25.825Z,1.30
2022-09-21T12:16:38.233Z,1.40
2022-09-21T12:20:17.666Z,1.10
2022-09-21T12:23:31.607Z,1.27
2022-09-21T12:26:43.247Z,1.00
2022-09-21T12:29:50.712Z,0.90
2022-09-21T12:32:59.046Z,0.90
2022-09-21T12:36:14.608Z,1.10
2022-09-21T12:39:25.344Z,1.35
2022-09-21T12:42:48.588Z,1.20
2022-09-21T12:46:35.217Z,1.30
2022-09-21T12:49:46.457Z,1.10
2022-09-21T12:52:49.939Z,1.08
2022-09-21T12:56:01.186Z,1.10
2022-09-21T12:59:14.766Z,0.80
2022-09-21T13:02:42.289Z,0.93
2022-09-21T13:05:57.511Z,1.00
2022-09-21T13:09:03.420Z,1.17
2022-09-21T13:12:11.966Z,0.95
2022-09-21T13:15:28.192Z,1.20
2022-09-21T13:18:36.853Z,0.82
2022-09-21T13:21:39.282Z,0.70
2022-09-21T13:24:42.791Z,1.10
2022-09-21T13:28:04.400Z,1.08
2022-09-21T13:31:09.960Z,0.85
2022-09-21T13:34:33.255Z,0.70
2022-09-21T13:37:35.067Z,1.10
2022-09-21T13:40:36.882Z,0.85
2022-09-21T13:43:59.718Z,0.90
2022-09-21T13:47:05.538Z,0.93
2022-09-21T13:50:25.896Z,0.75
2022-09-21T13:53:34.119Z,1.02
2022-09-21T13:56:35.836Z,1.13
2022-09-21T13:59:40.650Z,1.00
2022-09-21T14:03:04.160Z,0.90
2022-09-21T14:06:08.523Z,1.20
2022-09-21T14:10:02.834Z,1.13
2022-09-21T14:13:21.784Z,0.98
2022-09-21T14:16:53.623Z,0.93
2022-09-21T14:19:55.971Z,0.85
2022-09-21T14:23:33.253Z,0.98
2022-09-21T14:26:42.402Z,0.95
2022-09-21T14:29:53.013Z,0.82
2022-09-21T14:33:00.812Z,1.10
2022-09-21T14:36:08.756Z,0.90
2022-09-21T14:39:19.202Z,0.70
2022-09-21T14:42:27.783Z,1.00
2022-09-21T14:45:56.425Z,0.98
2022-09-21T14:49:19.378Z,0.70
2022-09-21T14:52:32.338Z,0.82
2022-09-21T14:55:42.984Z,0.88
2022-09-21T14:59:15.415Z,0.80
2022-09-21T15:02:22.701Z,0.88
2022-09-21T15:05:35.910Z,0.80
2022-09-21T15:09:33.724Z,0.77
2022-09-21T15:12:47.301Z,0.88
2022-09-21T15:16:07.072Z,0.60
2022-09-21T15:19:25.517Z,1.00
2022-09-21T15:22:27.851Z,0.70
2022-09-21T15:25:33.093Z,0.80
2022-09-21T15:28:58.230Z,0.63
2022-09-21T15:32:01.595Z,0.98
2022-09-21T15:35:15.308Z,1.00
2022-09-21T15:38:36.152Z,0.73
2022-09-21T15:41:39.439Z,0.70
2022-09-21T15:44:41.410Z,0.70
2022-09-21T15:47:44.914Z,0.90
2022-09-21T15:50:52.884Z,0.63
2022-09-21T15:54:23.882Z,0.60
2022-09-21T15:57:38.602Z,0.70
2022-09-21T16:00:54.873Z,0.63
2022-09-21T16:04:06.142Z,0.70
2022-09-21T16:07:25.619Z,0.88
2022-09-21T16:10:30.059Z,0.70
2022-09-21T16:13:50.916Z,0.90
2022-09-21T16:17:13.379Z,0.80
2022-09-21T16:20:22.880Z,0.73
2022-09-21T16:23:30.082Z,0.65
2022-09-21T16:26:35.431Z,0.57
2022-09-21T16:29:40.224Z,0.60
2022-09-21T16:32:42.215Z,0.60
2022-09-21T16:35:44.235Z,0.70
2022-09-21T16:38:47.156Z,0.88
2022-09-21T16:41:54.873Z,0.50
2022-09-21T16:44:56.855Z,0.60
2022-09-21T16:47:59.420Z,0.93
2022-09-21T16:51:01.169Z,0.70
2022-09-21T16:54:02.967Z,0.50
2022-09-21T16:57:06.401Z,0.93
2022-09-21T17:00:13.362Z,0.80
2022-09-21T17:03:15.947Z,0.82
2022-09-21T17:06:20.333Z,0.77
2022-09-21T17:09:33.248Z,0.50
2022-09-21T17:12:35.322Z,0.63
2022-09-21T17:15:41.301Z,0.60
2022-09-21T17:18:43.042Z,0.45
2022-09-21T17:21:45.558Z,0.40
2022-09-21T17:24:51.637Z,0.60
2022-09-21T17:27:53.731Z,0.70
2022-09-21T17:30:55.750Z,0.80
2022-09-21T17:33:57.479Z,0.65
2022-09-21T17:36:59.175Z,0.65
2022-09-21T17:40:01.241Z,0.80
2022-09-21T17:43:33.849Z,0.60
2022-09-21T17:46:58.403Z,0.80
2022-09-21T17:50:08.337Z,0.55
2022-09-21T17:53:28.823Z,0.95
2022-09-21T17:56:36.153Z,0.65
2022-09-21T17:59:38.292Z,0.50
2022-09-21T18:02:40.121Z,1.05
2022-09-21T18:05:42.053Z,0.70
2022-09-21T18:08:44.110Z,0.70
2022-09-21T18:12:20.588Z,0.57
2022-09-21T18:15:47.786Z,0.73
2022-09-21T18:19:00.848Z,0.55
2022-09-21T18:22:27.239Z,0.90
2022-09-21T18:25:47.862Z,0.80
2022-09-21T18:28:56.931Z,0.63
2022-09-21T18:32:09.991Z,0.80
2022-09-21T18:35:28.192Z,0.60
2022-09-21T18:38:38.922Z,0.98
2022-09-21T18:42:11.333Z,0.73
2022-09-21T18:45:25.289Z,0.70
2022-09-21T18:48:26.978Z,0.60
2022-09-21T18:51:53.887Z,0.80
2022-09-21T18:54:55.809Z,0.55
2022-09-21T18:57:59.311Z,0.60
2022-09-21T19:01:01.325Z,0.60
2022-09-21T19:04:03.531Z,0.60
2022-09-21T19:07:13.606Z,0.70
2022-09-21T19:10:32.661Z,0.68
2022-09-21T19:14:05.294Z,0.85
2022-09-21T19:17:44.260Z,0.80
2022-09-21T19:24:05.420Z,0.88
2022-09-21T19:27:39.982Z,0.82
2022-09-21T19:30:42.354Z,0.80
2022-09-21T19:33:50.560Z,0.80
2022-09-21T19:36:53.693Z,1.00
2022-09-21T19:39:55.601Z,0.50
2022-09-21T19:43:20.531Z,0.90
2022-09-21T19:46:47.668Z,0.57
2022-09-21T19:49:54.391Z,0.60
2022-09-21T19:53:16.309Z,0.70
2022-09-21T19:56:36.782Z,0.73
2022-09-21T19:59:44.490Z,0.98
2022-09-21T20:02:58.246Z,0.75
2022-09-21T20:06:08.082Z,0.68
2022-09-21T20:09:19.429Z,0.57
2022-09-21T20:12:38.388Z,0.98
2022-09-21T20:15:44.955Z,0.80
2022-09-21T20:19:25.434Z,0.63
2022-09-21T20:22:35.422Z,0.70
2022-09-21T20:26:03.406Z,0.50
2022-09-21T20:29:05.300Z,0.60
2022-09-21T20:32:08.884Z,1.02
2022-09-21T20:35:24.957Z,0.82
2022-09-21T20:38:26.709Z,0.80
2022-09-21T20:41:28.428Z,0.95
2022-09-21T20:44:30.517Z,0.60
2022-09-21T20:47:32.493Z,0.80
2022-09-21T20:50:34.219Z,0.52
2022-09-21T20:53:35.936Z,0.70
2022-09-21T20:56:37.694Z,0.70
2022-09-21T20:59:39.465Z,0.63
2022-09-21T21:02:42.003Z,0.80
2022-09-21T21:05:43.719Z,0.80
2022-09-21T21:08:46.222Z,0.85
2022-09-21T21:11:47.932Z,0.98
2022-09-21T21:14:49.655Z,0.52
2022-09-21T21:17:51.747Z,0.60
2022-09-21T21:20:53.517Z,0.60
2022-09-21T21:24:13.806Z,0.65
2022-09-21T21:27:20.987Z,0.52
2022-09-21T21:30:25.147Z,0.70
2022-09-21T21:33:27.110Z,0.70
2022-09-21T21:36:28.793Z,0.75
2022-09-21T21:39:30.566Z,0.73
2022-09-21T21:42:32.295Z,0.77
2022-09-21T21:45:34.110Z,0.68
2022-09-21T21:48:41.259Z,0.50
2022-09-21T21:51:44.587Z,0.52
2022-09-21T21:54:46.559Z,0.77
2022-09-21T21:57:48.278Z,0.45
2022-09-21T22:00:50.043Z,0.65
2022-09-21T22:03:54.036Z,0.65
2022-09-21T22:06:55.741Z,0.60
2022-09-21T22:09:57.497Z,0.60
2022-09-21T22:12:59.195Z,0.55
2022-09-21T22:16:09.698Z,0.57
2022-09-21T22:19:11.491Z,0.45
2022-09-21T22:22:13.189Z,0.60
2022-09-21T22:25:14.958Z,0.70
2022-09-21T22:28:16.777Z,0.60
2022-09-21T22:31:21.962Z,0.80
2022-09-21T22:34:23.690Z,0.75
2022-09-21T22:37:25.416Z,0.45
2022-09-21T22:40:27.284Z,0.70
2022-09-21T22:43:29.059Z,0.45
2022-09-21T22:46:31.671Z,0.60
2022-09-21T22:49:33.366Z,0.70
2022-09-21T22:52:35.057Z,0.70
2022-09-21T22:55:36.766Z,0.50
2022-09-21T22:58:41.026Z,0.60
2022-09-21T23:01:42.729Z,0.50
2022-09-21T23:04:45.778Z,0.70
2022-09-21T23:07:51.749Z,0.40
2022-09-21T23:10:53.449Z,0.43
2022-09-21T23:13:56.646Z,0.50
2022-09-21T23:16:58.360Z,0.60
2022-09-21T23:20:00.071Z,0.60
2022-09-21T23:23:01.779Z,0.60
2022-09-21T23:26:05.039Z,0.63
2022-09-21T23:29:12.426Z,0.60
2022-09-21T23:32:14.294Z,0.60
2022-09-21T23:35:15.999Z,0.57
2022-09-21T23:38:17.686Z,0.82
2022-09-21T23:41:27.912Z,0.60
2022-09-21T23:44:29.599Z,0.70
2022-09-21T23:47:31.290Z,0.55
2022-09-21T23:50:33.002Z,0.50
2022-09-21T23:53:35.400Z,0.60
2022-09-21T23:56:37.337Z,0.68
2022-09-21T23:59:39.038Z,0.68
